Time;durP1;ratioP1;P1;durP2;ratioP2;P2;SDS_P1;SDS_P2;PMS_P1;PMS_P2;Temp;Humidity;BMP_temperature;BMP_pressure;BME280_temperature;BME280_humidity;BME280_pressure;Samples;Min_cycle;Max_cycle;Signal;HPM_P1;HPM_P2
2022/11/18 00:01:22;;;;;;;1.30;1.20;;;10.40;99.90;;;10.83;nan;98782.09;5010696;28;20685;-65
2022/11/18 00:03:50;;;;;;;1.00;1.00;;;10.40;99.90;;;10.86;nan;98779.97;5013204;28;21009;-65
2022/11/18 00:06:22;;;;;;;1.10;1.00;;;10.50;99.90;;;10.91;nan;98788.16;5013622;28;20638;-66
2022/11/18 00:08:52;;;;;;;1.27;1.00;;;10.50;99.90;;;10.87;nan;98786.00;4994218;28;21635;-64
2022/11/18 00:14:18;;;;;;;4.53;1.70;;;10.60;99.90;;;10.84;nan;98792.34;5006063;28;20642;-65
2022/11/18 00:16:54;;;;;;;1.23;1.00;;;10.60;99.90;;;10.91;nan;98782.13;4995302;28;20680;-64
2022/11/18 00:19:28;;;;;;;1.00;0.97;;;10.60;99.90;;;10.82;nan;98778.66;5012600;28;21014;-64
2022/11/18 00:21:56;;;;;;;0.83;0.83;;;10.60;99.90;;;10.74;nan;98777.81;5012750;28;20680;-64
2022/11/18 00:24:24;;;;;;;1.10;1.10;;;10.50;99.90;;;10.87;nan;98780.78;5012936;28;21232;-64
2022/11/18 00:26:51;;;;;;;2.90;0.87;;;10.50;99.90;;;10.73;nan;98787.41;4997135;28;20637;-64
2022/11/18 00:29:19;;;;;;;1.27;0.97;;;10.50;99.90;;;10.79;nan;98783.38;5012483;28;20626;-64
2022/11/18 00:31:47;;;;;;;0.70;0.70;;;10.60;99.90;;;10.74;nan;98788.22;4994774;28;21249;-64
2022/11/18 00:34:16;;;;;;;0.93;0.90;;;10.50;99.90;;;10.76;nan;98783.66;5008036;28;20769;-64
2022/11/18 00:36:44;;;;;;;2.77;1.00;;;10.50;99.90;;;10.54;nan;98790.25;5011325;28;20680;-65
2022/11/18 00:39:13;;;;;;;0.83;0.83;;;10.50;99.90;;;10.49;nan;98795.13;4995200;28;21015;-65
2022/11/18 00:44:26;;;;;;;0.80;0.80;;;10.40;99.90;;;10.57;nan;98784.72;4996788;28;20649;-65
2022/11/18 00:46:54;;;;;;;0.90;0.90;;;10.30;99.90;;;10.61;nan;98785.22;4976794;28;20634;-65
2022/11/18 00:49:21;;;;;;;0.90;0.90;;;10.40;99.90;;;10.57;nan;98784.72;4994669;28;20656;-65
2022/11/18 00:51:48;;;;;;;2.03;0.87;;;10.40;99.90;;;10.32;nan;98782.13;5012664;28;21099;-65
2022/11/18 00:54:15;;;;;;;0.97;0.90;;;10.20;99.90;;;10.42;nan;98782.84;5011457;28;20650;-65
2022/11/18 00:56:42;;;;;;;0.77;0.77;;;10.20;99.90;;;10.32;nan;98780.34;5008885;28;20746;-65
2022/11/18 00:59:09;;;;;;;2.00;1.07;;;10.20;99.90;;;10.35;nan;98779.22;5002395;28;20661;-65
2022/11/18 01:01:36;;;;;;;1.37;0.87;;;10.20;99.90;;;10.42;nan;98785.44;5010849;28;20743;-65
2022/11/18 01:04:03;;;;;;;1.10;1.10;;;10.20;99.90;;;10.46;nan;98789.38;5010534;28;20637;-65
2022/11/18 01:06:30;;;;;;;3.63;0.87;;;10.20;99.90;;;10.57;nan;98792.56;5012527;28;20702;-64
2022/11/18 01:08:57;;;;;;;0.93;0.90;;;10.20;99.90;;;10.52;nan;98800.00;5011750;28;20699;-64
2022/11/18 01:14:10;;;;;;;0.60;0.60;;;10.20;99.90;;;10.55;nan;98807.53;5014878;28;21292;-64
2022/11/18 01:16:37;;;;;;;0.90;0.87;;;10.30;99.90;;;10.50;nan;98803.75;4992628;28;20658;-64
2022/11/18 01:19:04;;;;;;;1.27;1.20;;;10.30;99.90;;;10.46;nan;98811.06;4994068;28;20676;-63
2022/11/18 01:21:31;;;;;;;1.90;0.83;;;10.30;99.90;;;10.35;nan;98811.31;5011988;28;20660;-65
2022/11/18 01:23:58;;;;;;;1.30;1.20;;;10.20;99.90;;;10.48;nan;98811.72;5010414;28;20626;-64
2022/11/18 01:26:25;;;;;;;1.23;1.23;;;10.20;99.90;;;10.45;nan;98812.03;5011657;28;20638;-65
2022/11/18 01:28:58;;;;;;;0.90;0.90;;;10.20;99.90;;;10.34;nan;98812.28;5007198;28;20642;-64
2022/11/18 01:31:25;;;;;;;0.80;0.80;;;10.20;99.90;;;10.31;nan;98811.78;5006967;28;20656;-65
2022/11/18 01:33:52;;;;;;;0.90;0.90;;;10.10;99.90;;;10.28;nan;98815.50;5009696;28;21019;-64
2022/11/18 01:36:26;;;;;;;0.70;0.70;;;10.10;99.90;;;10.40;nan;98822.09;4996306;28;20654;-64
2022/11/18 01:38:54;;;;;;;1.10;1.03;;;10.20;99.90;;;10.30;nan;98812.75;4992038;28;20657;-65
2022/11/18 01:41:24;;;;;;;2.13;0.77;;;10.10;99.90;;;10.36;nan;98815.56;4995919;28;20658;-66
2022/11/18 01:44:04;;;;;;;1.20;1.20;;;10.10;99.90;;;10.30;nan;98817.94;5009513;28;20642;-64
2022/11/18 01:46:33;;;;;;;1.27;1.17;;;10.10;99.90;;;10.24;nan;98824.59;5010907;28;20637;-65
2022/11/18 01:49:11;;;;;;;1.60;1.50;;;10.10;99.90;;;10.25;nan;98825.41;4991861;28;20637;-63
2022/11/18 01:51:51;;;;;;;1.80;1.70;;;10.00;99.90;;;10.17;nan;98822.75;5011506;28;20665;-64
2022/11/18 01:54:35;;;;;;;1.17;1.07;;;10.00;99.90;;;10.10;nan;98823.34;4992548;28;21263;-64
2022/11/18 01:57:08;;;;;;;2.57;1.40;;;10.00;99.90;;;10.18;nan;98814.75;4993901;28;20661;-64
2022/11/18 01:59:39;;;;;;;2.13;1.43;;;10.00;99.90;;;10.05;nan;98814.31;4987991;28;20638;-65
2022/11/18 02:02:11;;;;;;;1.47;1.37;;;10.00;99.90;;;10.17;nan;98825.34;5028480;23;20688;-65
2022/11/18 02:04:43;;;;;;;1.23;1.23;;;9.90;99.90;;;10.24;nan;98824.59;5032295;28;20624;-65
2022/11/18 02:07:11;;;;;;;1.37;1.30;;;10.00;99.90;;;10.35;nan;98818.31;5042951;28;20633;-64
2022/11/18 02:09:38;;;;;;;1.20;1.10;;;10.00;99.90;;;10.31;nan;98820.41;5030521;28;20612;-65
2022/11/18 02:12:06;;;;;;;1.30;1.20;;;10.00;99.90;;;10.22;nan;98820.50;5040101;28;21003;-66
2022/11/18 02:14:39;;;;;;;1.40;1.30;;;10.00;99.90;;;10.16;nan;98829.72;5030718;28;21005;-64
2022/11/18 02:17:18;;;;;;;1.13;1.13;;;10.00;99.90;;;10.14;nan;98831.66;5030286;28;20846;-64
2022/11/18 02:19:50;;;;;;;1.77;1.67;;;10.00;99.90;;;10.17;nan;98834.00;5030741;28;20628;-64
2022/11/18 02:22:59;;;;;;;2.10;1.80;;;10.00;99.90;;;10.12;nan;98834.44;5036909;28;20664;-64
2022/11/18 02:25:56;;;;;;;1.40;1.30;;;10.00;99.90;;;10.12;nan;98838.81;5044447;28;21254;-64
2022/11/18 02:29:00;;;;;;;2.57;1.80;;;10.00;99.90;;;10.03;nan;98839.69;5035354;28;20706;-64
2022/11/18 02:31:38;;;;;;;2.00;1.90;;;9.90;99.90;;;10.06;nan;98837.63;5021336;28;20678;-64
2022/11/18 02:34:20;;;;;;;1.33;1.30;;;9.90;99.90;;;10.16;nan;98845.38;5036871;28;20620;-64
2022/11/18 02:37:15;;;;;;;1.60;1.50;;;9.90;99.90;;;10.18;nan;98848.63;5019957;28;20657;-65
2022/11/18 02:40:11;;;;;;;1.13;1.10;;;9.90;99.90;;;10.00;nan;98843.44;5013139;28;20637;-64
2022/11/18 02:42:41;;;;;;;1.53;1.43;;;9.90;99.90;;;10.07;nan;98856.69;5007120;28;20656;-64
2022/11/18 02:45:16;;;;;;;1.43;1.33;;;9.90;99.90;;;10.19;nan;98852.06;5012163;28;20639;-64
2022/11/18 02:47:46;;;;;;;1.90;1.80;;;10.00;99.90;;;10.32;nan;98842.91;5028696;28;20629;-64
2022/11/18 02:50:22;;;;;;;2.20;1.67;;;10.00;99.90;;;10.36;nan;98849.44;5030480;28;20628;-64
2022/11/18 02:52:56;;;;;;;1.83;1.70;;;10.10;99.90;;;10.17;nan;98847.00;5016469;28;20668;-64
2022/11/18 02:55:27;;;;;;;2.33;1.57;;;10.00;99.90;;;10.25;nan;98848.84;5016803;28;20699;-65
2022/11/18 02:57:56;;;;;;;4.20;1.53;;;10.00;99.90;;;10.17;nan;98852.22;5016300;28;20665;-64
2022/11/18 03:00:23;;;;;;;1.70;1.60;;;10.00;99.90;;;10.31;nan;98856.88;5016008;28;20632;-64
2022/11/18 03:02:50;;;;;;;1.47;1.37;;;10.00;99.90;;;10.43;nan;98862.69;5027101;28;20721;-64
2022/11/18 03:05:48;;;;;;;3.30;2.23;;;10.10;99.90;;;10.47;nan;98867.47;5041172;28;20716;-64
2022/11/18 03:08:22;;;;;;;1.13;1.13;;;10.10;99.90;;;10.45;nan;98865.97;5008634;28;21068;-64
2022/11/18 03:11:09;;;;;;;1.23;1.13;;;10.10;99.90;;;10.42;nan;98868.88;5019548;28;20666;-65
2022/11/18 03:14:12;;;;;;;1.77;1.67;;;10.20;99.90;;;10.47;nan;98877.88;5016787;28;20636;-63
2022/11/18 03:17:03;;;;;;;1.20;1.17;;;10.20;99.90;;;10.55;nan;98870.13;5033398;28;20744;-64
2022/11/18 03:20:20;;;;;;;2.07;1.77;;;10.20;99.90;;;10.62;nan;98883.38;5017854;28;20683;-64
2022/11/18 03:23:13;;;;;;;3.10;1.63;;;10.30;99.90;;;10.49;nan;98875.94;5036341;28;20730;-64
2022/11/18 03:25:54;;;;;;;1.70;1.60;;;10.30;99.90;;;10.50;nan;98874.97;5033181;28;20655;-64
2022/11/18 03:28:48;;;;;;;1.23;1.13;;;10.30;99.90;;;10.54;nan;98884.09;5046012;28;20698;-64
2022/11/18 03:31:52;;;;;;;1.80;1.60;;;10.30;99.90;;;10.45;nan;98879.81;5019485;28;21034;-65
2022/11/18 03:34:41;;;;;;;1.33;1.20;;;10.20;99.90;;;10.44;nan;98887.78;4996361;28;20656;-64
2022/11/18 03:37:12;;;;;;;0.93;0.93;;;10.20;99.90;;;10.29;nan;98881.47;5023885;28;20672;-64
2022/11/18 03:39:49;;;;;;;1.23;1.17;;;10.10;99.90;;;10.39;nan;98888.22;5035339;28;20628;-64
2022/11/18 03:42:52;;;;;;;1.30;1.20;;;10.20;99.90;;;10.44;nan;98888.59;5021340;28;20652;-64
2022/11/18 03:45:48;;;;;;;0.83;0.83;;;10.20;99.90;;;10.57;nan;98896.84;5006709;28;20961;-65
2022/11/18 03:48:23;;;;;;;1.63;1.27;;;10.20;99.90;;;10.57;nan;98899.47;5015112;28;20640;-65
2022/11/18 03:51:01;;;;;;;1.67;1.57;;;10.20;99.90;;;10.61;nan;98902.56;5032467;28;20697;-65
2022/11/18 03:53:33;;;;;;;3.73;1.90;;;10.30;99.90;;;10.67;nan;98905.41;5031948;28;20678;-65
2022/11/18 03:56:15;;;;;;;1.47;1.37;;;10.30;99.90;;;10.70;nan;98912.09;5014700;28;20648;-65
2022/11/18 03:59:18;;;;;;;1.87;1.70;;;10.30;99.90;;;10.74;nan;98911.66;5031142;28;20637;-66
2022/11/18 04:01:56;;;;;;;2.73;1.87;;;10.40;99.90;;;10.75;nan;98913.28;5017513;28;20666;-66
2022/11/18 04:04:25;;;;;;;1.70;1.60;;;10.40;99.90;;;10.79;nan;98922.47;5026264;28;20629;-65
2022/11/18 04:07:42;;;;;;;1.50;1.33;;;10.40;99.90;;;10.83;nan;98923.78;5017035;28;21018;-66
2022/11/18 04:10:30;;;;;;;1.70;1.60;;;10.50;99.90;;;10.89;nan;98927.56;5030185;28;21274;-65
2022/11/18 04:13:07;;;;;;;2.00;1.90;;;10.50;99.90;;;10.94;nan;98925.31;5051791;28;20655;-65
2022/11/18 04:15:40;;;;;;;2.73;2.00;;;10.50;99.90;;;10.94;nan;98923.50;5033333;28;20635;-66
2022/11/18 04:18:09;;;;;;;1.70;1.60;;;10.50;99.90;;;10.95;nan;98929.56;5033541;28;20671;-66
2022/11/18 04:20:36;;;;;;;2.10;1.90;;;10.60;99.90;;;10.98;nan;98931.88;5027044;28;20693;-65
2022/11/18 04:23:05;;;;;;;2.50;1.90;;;10.60;99.90;;;10.96;nan;98925.16;5013456;28;20783;-65
2022/11/18 04:25:33;;;;;;;1.93;1.83;;;10.60;99.90;;;11.04;nan;98930.41;5031986;28;21008;-65
2022/11/18 04:28:00;;;;;;;3.37;2.17;;;10.60;99.90;;;10.94;nan;98931.34;5031609;28;20690;-63
2022/11/18 04:30:27;;;;;;;9.40;2.40;;;10.60;99.90;;;10.97;nan;98938.03;5032369;28;20640;-65
2022/11/18 04:32:57;;;;;;;2.33;2.13;;;10.60;99.90;;;11.05;nan;98934.69;5033895;28;20667;-65
2022/11/18 04:35:26;;;;;;;1.67;1.67;;;10.60;99.90;;;11.05;nan;98935.50;5048533;28;20633;-65
2022/11/18 04:37:53;;;;;;;2.40;1.87;;;10.60;99.90;;;11.08;nan;98939.56;5030684;28;21243;-65
2022/11/18 04:40:25;;;;;;;1.83;1.73;;;10.70;99.90;;;11.10;nan;98940.25;5031959;28;20667;-67
2022/11/18 04:42:54;;;;;;;1.90;1.80;;;10.70;99.90;;;11.14;nan;98944.19;5033417;28;20660;-65
2022/11/18 04:45:21;;;;;;;3.23;1.83;;;10.70;99.90;;;11.12;nan;98946.13;5045600;28;21208;-65
2022/11/18 04:47:51;;;;;;;1.70;1.70;;;10.70;99.90;;;11.14;nan;98949.44;5031537;28;20719;-64
2022/11/18 04:50:21;;;;;;;3.13;1.70;;;10.70;99.90;;;11.10;nan;98953.28;5031902;28;20980;-66
2022/11/18 04:52:50;;;;;;;4.17;2.20;;;10.70;99.90;;;11.04;nan;98964.34;5022147;28;21243;-65
2022/11/18 04:55:19;;;;;;;5.90;1.90;;;10.70;99.90;;;11.11;nan;98971.44;5026635;28;20697;-66
2022/11/18 04:57:47;;;;;;;2.60;2.00;;;10.70;99.90;;;11.09;nan;98977.75;5014914;28;21050;-65
2022/11/18 05:00:15;;;;;;;2.00;1.90;;;10.70;99.90;;;10.94;nan;98978.31;5043403;28;20743;-65
2022/11/18 05:02:42;;;;;;;1.50;1.40;;;10.70;99.90;;;11.03;nan;98983.59;5037333;28;20667;-64
2022/11/18 05:05:12;;;;;;;1.03;1.03;;;10.70;99.90;;;11.17;nan;98980.41;5047581;28;21208;-65
2022/11/18 05:07:38;;;;;;;0.70;0.70;;;10.70;99.90;;;11.04;nan;98988.66;5031498;28;20697;-64
2022/11/18 05:10:06;;;;;;;0.93;0.90;;;10.70;99.90;;;10.97;nan;98989.44;5043993;28;20679;-64
2022/11/18 05:12:48;;;;;;;0.77;0.77;;;10.70;99.90;;;11.00;nan;98989.13;5050044;28;21313;-63
2022/11/18 05:15:23;;;;;;;1.33;0.90;;;10.60;99.90;;;10.97;nan;98992.03;5035878;28;20965;-64
2022/11/18 05:17:50;;;;;;;0.80;0.70;;;10.60;99.90;;;10.96;nan;98998.22;5046486;28;20674;-65
2022/11/18 05:20:17;;;;;;;0.40;0.40;;;10.60;99.90;;;10.99;nan;99009.16;5052084;28;20600;-64
2022/11/18 05:22:44;;;;;;;2.43;0.70;;;10.60;99.90;;;10.94;nan;99001.78;5047773;28;20660;-65
2022/11/18 05:25:11;;;;;;;0.40;0.40;;;10.60;99.90;;;10.86;nan;99013.97;5051341;28;21012;-64
2022/11/18 05:27:38;;;;;;;0.90;0.67;;;10.50;99.90;;;10.85;nan;99007.94;5050711;28;20667;-65
2022/11/18 05:30:05;;;;;;;1.33;0.60;;;10.50;99.90;;;10.85;nan;99015.75;5035747;28;21249;-64
2022/11/18 05:32:32;;;;;;;0.73;0.73;;;10.50;99.90;;;10.88;nan;99015.44;5050438;28;20659;-65
2022/11/18 05:34:59;;;;;;;0.70;0.70;;;10.50;99.90;;;10.77;nan;99014.88;5036725;28;21071;-64
2022/11/18 05:37:26;;;;;;;0.60;0.60;;;10.50;99.90;;;10.82;nan;99018.66;5030569;28;21244;-64
2022/11/18 05:39:53;;;;;;;4.43;1.10;;;10.50;99.90;;;10.81;nan;99022.25;5030003;28;20644;-65
2022/11/18 05:45:05;;;;;;;0.40;0.40;;;10.50;99.90;;;10.84;nan;99026.31;5029912;28;20636;-64
2022/11/18 05:47:58;;;;;;;1.50;0.60;;;10.50;99.90;;;10.77;nan;99020.91;5030844;28;20621;-64
2022/11/18 05:50:19;;;;;;;0.50;0.50;;;10.40;99.90;;;10.72;nan;99027.53;5044049;28;21191;-63
2022/11/18 05:52:47;;;;;;;0.50;0.50;;;10.40;99.90;;;10.61;nan;99035.56;5030332;28;21016;-65
2022/11/18 05:55:18;;;;;;;0.57;0.57;;;10.40;99.90;;;10.65;nan;99034.31;5043038;28;20678;-65
2022/11/18 05:57:45;;;;;;;0.50;0.50;;;10.30;99.90;;;10.70;nan;99043.34;5013028;28;21044;-65
2022/11/18 06:00:13;;;;;;;1.83;0.47;;;10.30;99.90;;;10.75;nan;99041.09;5028217;28;20639;-62
2022/11/18 06:02:43;;;;;;;0.50;0.50;;;10.30;99.90;;;10.74;nan;99041.25;5027967;28;20661;-65
2022/11/18 06:05:11;;;;;;;1.20;0.50;;;10.30;99.90;;;10.74;nan;99042.06;5009795;28;21214;-66
2022/11/18 06:07:43;;;;;;;0.47;0.47;;;10.30;99.90;;;10.74;nan;99051.69;5012948;28;20636;-66
2022/11/18 06:10:18;;;;;;;0.60;0.43;;;10.40;99.90;;;10.68;nan;99053.09;5028871;28;21193;-66
2022/11/18 06:12:50;;;;;;;0.60;0.60;;;10.30;99.90;;;10.68;nan;99067.94;5029989;28;20659;-65
2022/11/18 06:15:29;;;;;;;0.60;0.60;;;10.30;99.90;;;10.65;nan;99061.22;5037952;28;20703;-66
2022/11/18 06:17:59;;;;;;;0.50;0.50;;;10.30;99.90;;;10.62;nan;99063.31;5030417;28;20676;-65
2022/11/18 06:20:27;;;;;;;0.50;0.50;;;10.20;99.90;;;10.67;nan;99066.28;5031715;28;20629;-65
2022/11/18 06:22:57;;;;;;;0.30;0.30;;;10.30;99.90;;;10.63;nan;99068.38;5038442;28;20656;-66
2022/11/18 06:25:24;;;;;;;0.40;0.40;;;10.30;99.90;;;10.58;nan;99077.63;5031736;28;20658;-66
2022/11/18 06:27:55;;;;;;;0.50;0.50;;;10.20;99.90;;;10.61;nan;99079.91;5012022;28;20680;-66
2022/11/18 06:30:22;;;;;;;0.30;0.30;;;10.20;99.90;;;10.65;nan;99089.06;5015049;28;20997;-66
2022/11/18 06:32:49;;;;;;;0.40;0.40;;;10.20;99.90;;;10.63;nan;99096.22;5026276;28;21055;-65
2022/11/18 06:35:16;;;;;;;0.53;0.53;;;10.20;99.90;;;10.64;nan;99097.88;5031109;28;20690;-64
2022/11/18 06:37:43;;;;;;;0.40;0.40;;;10.20;99.90;;;10.56;nan;99105.63;5029034;28;20677;-65
2022/11/18 06:40:11;;;;;;;0.60;0.60;;;10.20;99.90;;;10.47;nan;99115.16;5029467;28;20633;-65
2022/11/18 06:45:24;;;;;;;0.30;0.30;;;10.20;99.90;;;10.60;nan;99117.41;5029954;28;20629;-65
2022/11/18 06:47:55;;;;;;;0.40;0.40;;;10.20;99.90;;;10.45;nan;99124.91;5045169;28;20663;-65
2022/11/18 06:50:22;;;;;;;0.40;0.40;;;10.20;99.90;;;10.39;nan;99122.84;5034260;28;20644;-66
2022/11/18 06:52:49;;;;;;;0.40;0.40;;;10.10;99.90;;;10.33;nan;99128.66;5029516;28;20667;-65
2022/11/18 06:55:16;;;;;;;0.40;0.40;;;10.10;99.90;;;10.48;nan;99137.63;5025946;28;20731;-66
2022/11/18 06:57:43;;;;;;;0.50;0.50;;;10.10;99.90;;;10.33;nan;99131.25;5041575;28;20744;-65
2022/11/18 07:00:12;;;;;;;0.50;0.50;;;10.10;99.90;;;10.44;nan;99143.28;5028967;28;20637;-65
2022/11/18 07:02:39;;;;;;;0.60;0.50;;;10.10;99.90;;;10.39;nan;99141.09;5027689;28;20702;-65
2022/11/18 07:05:06;;;;;;;0.50;0.50;;;10.10;99.90;;;10.39;nan;99151.53;5029553;28;21004;-65
2022/11/18 07:07:36;;;;;;;0.40;0.40;;;10.00;99.90;;;10.46;nan;99150.00;5031446;28;20641;-65
2022/11/18 07:10:08;;;;;;;0.97;0.53;;;10.10;99.90;;;10.41;nan;99152.25;5029513;28;20641;-65
2022/11/18 07:12:35;;;;;;;0.50;0.50;;;10.10;99.90;;;10.36;nan;99162.28;5029620;28;20661;-65
2022/11/18 07:15:02;;;;;;;0.30;0.30;;;10.00;99.90;;;10.34;nan;99161.59;5029718;28;20644;-65
2022/11/18 07:17:30;;;;;;;0.40;0.40;;;10.00;99.90;;;10.41;nan;99167.88;5029537;28;20725;-65
2022/11/18 07:19:57;;;;;;;0.50;0.40;;;10.00;99.90;;;10.39;nan;99175.00;5029418;28;20641;-65
2022/11/18 07:22:24;;;;;;;0.40;0.40;;;10.10;99.90;;;10.37;nan;99179.53;5028704;28;21244;-65
2022/11/18 07:24:51;;;;;;;0.50;0.50;;;10.00;99.90;;;10.30;nan;99175.88;5029193;28;20629;-62
2022/11/18 07:27:18;;;;;;;0.67;0.67;;;10.00;99.90;;;10.31;nan;99185.34;5030942;28;20631;-65
2022/11/18 07:29:45;;;;;;;0.50;0.50;;;10.00;99.90;;;10.25;nan;99185.09;5045119;28;20628;-64
2022/11/18 07:32:12;;;;;;;0.50;0.50;;;10.00;99.90;;;10.01;nan;99199.41;5043567;28;20717;-65
2022/11/18 07:34:39;;;;;;;0.70;0.70;;;9.90;99.90;;;10.26;nan;99190.19;5013299;28;21200;-65
2022/11/18 07:37:06;;;;;;;0.40;0.40;;;9.90;99.90;;;10.22;nan;99195.81;5031744;28;21193;-65
2022/11/18 07:39:33;;;;;;;0.50;0.50;;;9.90;99.90;;;10.20;nan;99202.97;5041500;28;20696;-65
2022/11/18 07:42:00;;;;;;;0.63;0.63;;;9.90;99.90;;;10.29;nan;99213.34;5036587;28;20670;-65
2022/11/18 07:44:27;;;;;;;0.50;0.50;;;9.90;99.90;;;10.14;nan;99220.78;5038928;28;20640;-65
2022/11/18 07:46:54;;;;;;;0.50;0.50;;;9.90;99.90;;;10.11;nan;99222.88;5032899;28;20702;-65
2022/11/18 07:49:21;;;;;;;0.53;0.53;;;9.90;99.90;;;10.16;nan;99223.25;5033153;28;21172;-64
2022/11/18 07:51:47;;;;;;;0.53;0.53;;;9.90;99.90;;;10.02;nan;99226.28;5040238;28;20668;-65
2022/11/18 07:54:16;;;;;;;0.50;0.50;;;9.80;99.90;;;10.09;nan;99233.38;5028738;28;21235;-66
2022/11/18 07:56:43;;;;;;;0.60;0.60;;;9.80;99.90;;;10.11;nan;99236.69;5031434;28;21395;-65
2022/11/18 07:59:10;;;;;;;0.50;0.50;;;9.90;99.90;;;9.92;nan;99231.50;5033446;28;20680;-64
2022/11/18 08:01:37;;;;;;;0.50;0.50;;;9.80;99.90;;;9.96;nan;99243.31;5032980;28;21251;-64
2022/11/18 08:04:08;;;;;;;0.40;0.40;;;9.80;99.90;;;10.11;nan;99243.72;5032254;28;20632;-63
2022/11/18 08:06:36;;;;;;;0.40;0.40;;;9.80;99.90;;;10.09;nan;99249.00;5032210;28;21025;-64
2022/11/18 08:09:05;;;;;;;0.53;0.53;;;9.80;99.90;;;10.19;nan;99253.41;5015157;28;20648;-64
2022/11/18 08:11:32;;;;;;;1.17;0.47;;;9.90;99.90;;;10.08;nan;99252.59;5018182;28;20656;-64
2022/11/18 08:14:00;;;;;;;0.33;0.33;;;9.80;99.90;;;10.07;nan;99255.34;5032126;28;20647;-64
2022/11/18 08:16:27;;;;;;;0.47;0.47;;;9.80;99.90;;;10.08;nan;99262.19;5031758;28;20637;-64
2022/11/18 08:18:54;;;;;;;0.53;0.53;;;9.90;99.90;;;10.04;nan;99266.03;5032243;28;20672;-64
2022/11/18 08:21:22;;;;;;;0.60;0.60;;;9.80;99.90;;;10.14;nan;99269.47;5032297;28;20661;-64
2022/11/18 08:23:57;;;;;;;0.77;0.60;;;9.90;99.90;;;10.06;nan;99271.94;5029375;28;20629;-62
2022/11/18 08:26:25;;;;;;;1.90;0.60;;;9.90;99.90;;;10.03;nan;99270.44;5030891;28;20686;-64
2022/11/18 08:28:52;;;;;;;1.07;0.73;;;9.90;99.90;;;10.08;nan;99281.25;5023772;28;20639;-65
2022/11/18 08:31:25;;;;;;;0.40;0.40;;;9.90;99.90;;;10.18;nan;99273.44;5030212;28;20668;-64
2022/11/18 08:34:06;;;;;;;0.93;0.93;;;9.90;99.90;;;10.00;nan;99282.91;5008918;28;20636;-63
2022/11/18 08:36:36;;;;;;;0.50;0.50;;;9.90;99.90;;;10.17;nan;99287.47;5047784;28;20640;-63
2022/11/18 08:39:06;;;;;;;0.53;0.53;;;9.90;99.90;;;10.18;nan;99285.69;5031136;28;20672;-65
2022/11/18 08:41:38;;;;;;;0.57;0.57;;;9.90;99.90;;;10.37;nan;99281.22;5031947;28;20718;-65
2022/11/18 08:44:07;;;;;;;0.93;0.70;;;10.00;99.90;;;10.09;nan;99274.28;5031326;28;20648;-65
2022/11/18 08:46:34;;;;;;;1.53;0.73;;;9.90;99.90;;;10.04;nan;99276.47;5031250;28;20695;-65
2022/11/18 08:49:01;;;;;;;0.50;0.50;;;9.90;99.90;;;10.28;nan;99281.25;5030128;28;21209;-65
2022/11/18 08:51:28;;;;;;;2.47;0.77;;;9.90;99.90;;;10.33;nan;99285.06;5026235;28;20745;-65
2022/11/18 08:53:55;;;;;;;0.87;0.60;;;10.00;99.90;;;10.26;nan;99285.78;5022928;28;20636;-65
2022/11/18 08:56:23;;;;;;;1.20;0.73;;;10.00;99.90;;;10.27;nan;99288.25;5032567;28;20652;-66
2022/11/18 08:58:51;;;;;;;1.60;0.60;;;10.00;99.90;;;10.30;nan;99289.75;5030862;28;20684;-67
2022/11/18 09:01:19;;;;;;;10.40;5.23;;;10.00;99.90;;;10.49;nan;99290.53;5023798;28;20670;-63
2022/11/18 09:03:46;;;;;;;19.30;8.30;;;10.10;99.90;;;10.45;nan;99294.41;5026535;28;20699;-62
2022/11/18 09:06:20;;;;;;;3.03;2.40;;;10.20;99.90;;;10.66;nan;99289.78;5035389;28;20632;-63
2022/11/18 09:08:47;;;;;;;0.70;0.70;;;10.20;99.90;;;10.84;nan;99292.44;5026940;28;20633;-64
2022/11/18 09:11:19;;;;;;;0.70;0.70;;;10.30;99.90;;;10.96;nan;99291.31;5035023;28;20664;-63
2022/11/18 09:13:46;;;;;;;0.73;0.70;;;10.50;99.90;;;11.20;nan;99288.16;5031820;28;20636;-63
2022/11/18 09:16:34;;;;;;;0.70;0.70;;;10.70;99.90;;;11.44;nan;99288.41;5026983;28;20633;-63
2022/11/18 09:19:02;;;;;;;0.67;0.67;;;10.80;99.90;;;11.42;nan;99293.78;5021105;28;21223;-63
2022/11/18 09:21:49;;;;;;;0.80;0.70;;;10.90;99.90;;;11.41;nan;99301.78;5022759;28;20668;-63
2022/11/18 09:24:16;;;;;;;0.60;0.60;;;11.00;99.90;;;11.59;nan;99299.97;5026179;28;20637;-63
2022/11/18 09:26:43;;;;;;;0.50;0.50;;;11.00;99.90;;;11.75;nan;99299.34;5023627;28;20633;-65
2022/11/18 09:29:10;;;;;;;0.60;0.60;;;11.20;99.90;;;11.76;nan;99301.81;5025741;28;20633;-64
2022/11/18 09:31:37;;;;;;;0.70;0.70;;;11.20;99.90;;;11.77;nan;99303.47;5025727;28;20664;-64
2022/11/18 09:34:05;;;;;;;0.83;0.53;;;11.20;99.90;;;11.87;nan;99309.44;5029966;28;20664;-64
2022/11/18 09:36:32;;;;;;;0.60;0.60;;;11.30;99.90;;;12.04;nan;99305.97;5024676;28;20646;-63
2022/11/18 09:38:59;;;;;;;1.37;0.80;;;11.40;99.90;;;12.30;nan;99312.06;5035601;28;20664;-64
2022/11/18 09:42:19;;;;;;;0.90;0.90;;;11.50;99.90;;;12.85;nan;99323.03;5032781;28;20660;-64
2022/11/18 09:45:01;;;;;;;3.60;2.13;;;11.70;99.90;;;13.17;nan;99325.00;4987034;28;20690;-64
2022/11/18 09:47:34;;;;;;;2.33;1.80;;;12.10;99.90;;;13.31;nan;99329.59;5035055;28;20701;-64
2022/11/18 09:50:15;;;;;;;0.90;0.90;;;12.30;99.90;;;13.37;nan;99333.41;5010800;28;20710;-65
2022/11/18 09:53:15;;;;;;;1.23;1.13;;;12.40;99.90;;;13.42;nan;99325.88;5016261;28;20649;-64
2022/11/18 09:55:43;;;;;;;0.97;0.97;;;12.50;99.90;;;13.38;nan;99332.41;5021713;28;20637;-65
2022/11/18 09:58:34;;;;;;;0.90;0.90;;;12.50;99.90;;;13.09;nan;99340.69;5040935;28;21250;-65
2022/11/18 10:01:03;;;;;;;1.10;1.10;;;12.50;99.90;;;12.97;nan;99344.50;4999152;28;20652;-64
2022/11/18 10:03:32;;;;;;;1.40;1.30;;;12.40;99.90;;;13.04;nan;99346.38;5021843;28;20691;-64
2022/11/18 10:06:09;;;;;;;1.03;1.03;;;12.40;99.90;;;13.05;nan;99341.97;5032350;28;20636;-64
2022/11/18 10:09:07;;;;;;;1.47;0.70;;;12.40;99.90;;;12.98;nan;99338.28;5029663;28;20690;-63
2022/11/18 10:11:53;;;;;;;0.67;0.67;;;12.40;99.90;;;13.01;nan;99338.00;5026591;28;20677;-64
2022/11/18 10:14:29;;;;;;;0.87;0.87;;;12.40;99.90;;;13.01;nan;99349.25;5028860;28;21057;-63
2022/11/18 10:17:23;;;;;;;1.20;1.10;;;12.40;99.90;;;13.01;nan;99351.88;5038525;28;20704;-64
2022/11/18 10:20:15;;;;;;;1.93;1.83;;;12.40;99.90;;;13.08;nan;99352.94;5011374;28;20681;-64
2022/11/18 10:22:51;;;;;;;1.03;0.93;;;12.40;99.90;;;13.06;nan;99351.44;5033722;28;20659;-65
2022/11/18 10:25:18;;;;;;;1.57;1.00;;;12.50;99.90;;;12.81;nan;99352.28;5029330;28;20683;-65
2022/11/18 10:27:48;;;;;;;0.80;0.80;;;12.40;99.90;;;12.50;nan;99357.13;5029090;28;20644;-63
2022/11/18 10:30:22;;;;;;;0.80;0.80;;;12.30;99.90;;;12.72;nan;99358.44;5028847;28;21048;-65
2022/11/18 10:32:59;;;;;;;1.23;1.07;;;12.30;99.90;;;12.87;nan;99367.34;5029926;28;20726;-65
2022/11/18 10:35:37;;;;;;;1.20;1.20;;;12.30;99.90;;;12.76;nan;99363.19;5025169;28;20640;-63
2022/11/18 10:38:19;;;;;;;0.87;0.87;;;12.30;99.90;;;12.76;nan;99370.22;5011793;28;20625;-64
2022/11/18 10:40:49;;;;;;;0.90;0.90;;;12.30;99.90;;;12.72;nan;99380.19;5027378;28;20636;-64
2022/11/18 10:43:54;;;;;;;1.20;1.10;;;12.20;99.90;;;12.48;nan;99370.38;5033181;28;20615;-64
2022/11/18 10:46:33;;;;;;;1.50;1.40;;;12.20;99.90;;;12.67;nan;99371.19;5025827;28;20648;-64
2022/11/18 10:49:09;;;;;;;2.33;1.40;;;12.10;99.90;;;12.77;nan;99375.34;5021898;28;20641;-64
2022/11/18 10:51:45;;;;;;;0.97;0.97;;;12.20;99.90;;;12.67;nan;99371.97;5030530;28;20668;-64
2022/11/18 10:54:21;;;;;;;0.80;0.80;;;12.20;99.90;;;12.68;nan;99364.94;5025289;28;20702;-64
2022/11/18 10:56:59;;;;;;;1.20;1.20;;;12.20;99.90;;;12.67;nan;99368.56;4996556;28;21192;-61
2022/11/18 10:59:51;;;;;;;1.13;1.13;;;12.20;99.90;;;12.64;nan;99366.22;5029948;28;20669;-64
2022/11/18 11:02:24;;;;;;;0.97;0.97;;;12.20;99.90;;;12.69;nan;99364.78;5030017;28;20668;-64
2022/11/18 11:04:52;;;;;;;1.10;1.10;;;12.20;99.90;;;12.81;nan;99373.22;5030314;28;20641;-65
2022/11/18 11:07:31;;;;;;;1.03;1.03;;;12.20;99.90;;;12.73;nan;99365.31;5030246;28;21212;-64
2022/11/18 11:10:07;;;;;;;1.20;1.20;;;12.30;99.90;;;12.69;nan;99364.00;5029739;28;21191;-65
2022/11/18 11:12:55;;;;;;;1.50;1.40;;;12.20;99.90;;;12.69;nan;99370.03;5033255;28;21262;-64
2022/11/18 11:15:35;;;;;;;1.30;1.30;;;12.20;99.90;;;12.75;nan;99363.38;5034416;28;20675;-63